Time;durP1;ratioP1;P1;durP2;ratioP2;P2;SDS_P1;SDS_P2;PMS_P1;PMS_P2;Temp;Humidity;BMP_temperature;BMP_pressure;BME280_temperature;BME280_humidity;BME280_pressure;Samples;Min_cycle;Max_cycle;Signal;HPM_P1;HPM_P2
2022/01/12 00:02:11;;;;;;;11.90;8.30;;;;;;102473.45;;;;106447;1297;62619;-45
2022/01/12 00:04:38;;;;;;;11.20;8.20;;;;;;102478.34;;;;106481;1297;66503;-44
2022/01/12 00:07:05;;;;;;;11.30;8.30;;;;;;102480.16;;;;106442;1298;62717;-46
2022/01/12 00:09:32;;;;;;;12.00;7.60;;;;;;102478.45;;;;106463;1298;62547;-43
2022/01/12 00:11:59;;;;;;;10.70;7.70;;;;;;102474.98;;;;106459;1298;62760;-42
2022/01/12 00:14:27;;;;;;;10.80;8.00;;;;;;102475.05;;;;106563;1296;62711;-45
2022/01/12 00:16:59;;;;;;;12.80;7.80;;;;;;102477.02;;;;106572;1297;64952;-27
2022/01/12 00:19:29;;;;;;;11.40;7.30;;;;;;102473.23;;;;106512;1297;62777;-41
2022/01/12 00:21:56;;;;;;;13.00;7.60;;;;;;102474.45;;;;106448;1299;62586;-28
2022/01/12 00:24:27;;;;;;;12.40;8.30;;;;;;102477.19;;;;106441;1300;62597;-42
2022/01/12 00:35:12;;;;;;;11.80;8.30;;;;;;102482.12;;;;106481;1297;62542;-43
2022/01/12 00:37:39;;;;;;;12.00;7.70;;;;;;102483.80;;;;106358;1299;62767;-34
2022/01/12 00:40:07;;;;;;;9.80;7.40;;;;;;102481.31;;;;106429;1299;62549;-33
2022/01/12 00:42:35;;;;;;;10.50;7.80;;;;;;102480.05;;;;106414;1299;66670;-42
2022/01/12 00:45:04;;;;;;;10.40;7.30;;;;;;102480.25;;;;106548;1297;62824;-42
2022/01/12 00:47:31;;;;;;;12.90;7.80;;;;;;102473.58;;;;106526;1297;62687;-42
2022/01/12 00:49:58;;;;;;;11.20;7.30;;;;;;102476.83;;;;106421;1299;62667;-43
2022/01/12 00:52:25;;;;;;;10.10;7.40;;;;;;102472.19;;;;106505;1297;62570;-31
2022/01/12 00:54:52;;;;;;;12.20;8.30;;;;;;102470.65;;;;106466;1299;66441;-30
2022/01/12 00:57:20;;;;;;;11.30;7.90;;;;;;102474.20;;;;106539;1297;62674;-48
2022/01/12 00:59:47;;;;;;;10.90;7.60;;;;;;102472.39;;;;106549;1297;62625;-49
2022/01/12 01:02:14;;;;;;;9.80;7.40;;;;;;102473.48;;;;106214;1297;428613;-46
2022/01/12 01:04:41;;;;;;;12.00;8.20;;;;;;102470.52;;;;106559;1297;62579;-48
2022/01/12 01:07:08;;;;;;;10.30;8.20;;;;;;102471.25;;;;106569;1297;66101;-29
2022/01/12 01:09:40;;;;;;;12.30;8.80;;;;;;102478.52;;;;106532;1296;62681;-29
2022/01/12 01:12:08;;;;;;;10.60;7.80;;;;;;102479.49;;;;106505;1296;62686;-29
2022/01/12 01:14:49;;;;;;;12.60;8.80;;;;;;102480.15;;;;106389;1299;62681;-35
2022/01/12 01:25:41;;;;;;;10.90;8.10;;;;;;102481.00;;;;106538;1297;62616;-28
2022/01/12 01:28:10;;;;;;;11.90;8.70;;;;;;102473.82;;;;106409;1300;62751;-28
2022/01/12 01:30:40;;;;;;;11.50;8.80;;;;;;102474.46;;;;106563;1297;62538;-28
2022/01/12 01:33:09;;;;;;;14.60;9.40;;;;;;102478.46;;;;106465;1300;66256;-43
2022/01/12 01:35:44;;;;;;;11.70;8.80;;;;;;102473.52;;;;106420;1300;62739;-43
2022/01/12 01:38:12;;;;;;;13.40;9.60;;;;;;102470.98;;;;106558;1297;62729;-31
2022/01/12 01:40:42;;;;;;;14.10;9.60;;;;;;102470.23;;;;106466;1297;62602;-32
2022/01/12 01:43:20;;;;;;;12.70;9.40;;;;;;102473.61;;;;106474;1297;62616;-45
2022/01/12 01:54:07;;;;;;;13.10;9.90;;;;;;102475.11;;;;106537;1297;62564;-29
2022/01/12 01:56:34;;;;;;;16.80;10.30;;;;;;102475.61;;;;106528;1297;62619;-39
2022/01/12 01:59:01;;;;;;;14.60;10.00;;;;;;102472.92;;;;106476;1300;65281;-40
2022/01/12 02:01:29;;;;;;;16.20;10.60;;;;;;102467.65;;;;106487;1299;62717;-28
2022/01/12 02:04:01;;;;;;;13.70;10.30;;;;;;102466.47;;;;106504;1297;62670;-30
2022/01/12 02:06:29;;;;;;;15.00;10.30;;;;;;102466.44;;;;106574;1297;62675;-49
2022/01/12 02:09:08;;;;;;;13.90;9.60;;;;;;102469.04;;;;106581;1296;62775;-49
2022/01/12 02:11:50;;;;;;;15.90;11.10;;;;;;102470.42;;;;106595;1296;66244;-29
2022/01/12 02:14:22;;;;;;;16.40;11.10;;;;;;102472.81;;;;106483;1296;62704;-36
2022/01/12 02:17:00;;;;;;;14.30;10.40;;;;;;102469.00;;;;106561;1296;63931;-34
2022/01/12 02:36:07;;;;;;;14.60;10.30;;;;;;102466.48;;;;106565;1297;62599;-30
2022/01/12 02:41:20;;;;;;;14.20;10.50;;;;;;102463.71;;;;106550;1297;62552;-43
2022/01/12 02:54:51;;;;;;;14.10;10.50;;;;;;102461.65;;;;106483;1300;62640;-34
2022/01/12 02:57:21;;;;;;;13.90;9.90;;;;;;102459.95;;;;106574;1297;62547;-37
2022/01/12 03:00:10;;;;;;;13.70;10.60;;;;;;102458.55;;;;106556;1296;62643;-34
2022/01/12 03:02:40;;;;;;;13.80;9.90;;;;;;102460.17;;;;106585;1297;62584;-33
2022/01/12 03:07:47;;;;;;;13.40;10.60;;;;;;102462.63;;;;106482;1297;62697;-43
2022/01/12 03:10:15;;;;;;;14.00;10.40;;;;;;102460.38;;;;106560;1296;62605;-43
2022/01/12 03:12:45;;;;;;;12.90;10.20;;;;;;102466.26;;;;106494;1299;62943;-43
2022/01/12 03:15:15;;;;;;;14.70;10.20;;;;;;102467.30;;;;106590;1297;62537;-42
2022/01/12 03:17:42;;;;;;;15.40;10.80;;;;;;102469.30;;;;106581;1296;65278;-43
2022/01/12 03:20:13;;;;;;;14.10;10.10;;;;;;102475.77;;;;106571;1297;62690;-43
2022/01/12 03:22:44;;;;;;;14.80;10.10;;;;;;102476.92;;;;106591;1296;62777;-43
2022/01/12 03:25:15;;;;;;;15.20;10.60;;;;;;102478.20;;;;106561;1297;62684;-43
2022/01/12 03:27:45;;;;;;;13.90;9.90;;;;;;102478.41;;;;106596;1295;62651;-43
2022/01/12 03:30:15;;;;;;;14.70;10.20;;;;;;102471.86;;;;106566;1296;65995;-44
2022/01/12 03:32:47;;;;;;;15.30;11.30;;;;;;102473.66;;;;106576;1297;62701;-43
2022/01/12 04:10:24;;;;;;;14.80;10.20;;;;;;102461.37;;;;106498;1298;62610;-33
2022/01/12 04:12:51;;;;;;;15.10;10.50;;;;;;102464.62;;;;106586;1297;62728;-42
2022/01/12 04:15:18;;;;;;;13.30;9.80;;;;;;102465.23;;;;106597;1296;62498;-43
2022/01/12 04:17:46;;;;;;;14.00;10.40;;;;;;102467.01;;;;106584;1296;66602;-43
2022/01/12 04:20:13;;;;;;;14.70;10.40;;;;;;102464.13;;;;106565;1297;62720;-42
2022/01/12 04:25:25;;;;;;;13.60;9.30;;;;;;102472.11;;;;106498;1299;62629;-42
2022/01/12 04:27:56;;;;;;;13.50;9.80;;;;;;102471.95;;;;106472;1295;62584;-42
2022/01/12 04:30:23;;;;;;;13.40;9.60;;;;;;102471.38;;;;106580;1297;67505;-44
2022/01/12 04:32:53;;;;;;;14.60;9.80;;;;;;102468.84;;;;106562;1297;62580;-35
2022/01/12 04:35:25;;;;;;;13.80;10.80;;;;;;102466.89;;;;106551;1297;62889;-35
2022/01/12 04:37:52;;;;;;;13.60;10.10;;;;;;102466.70;;;;106561;1297;62682;-31
2022/01/12 04:40:22;;;;;;;13.60;9.90;;;;;;102465.80;;;;106474;1297;62502;-30
2022/01/12 04:42:49;;;;;;;13.20;9.60;;;;;;102458.95;;;;106614;1296;66663;-43
2022/01/12 04:45:37;;;;;;;13.10;10.00;;;;;;102463.04;;;;106577;1297;62559;-46
2022/01/12 04:50:58;;;;;;;13.10;10.00;;;;;;102463.03;;;;106232;1299;62611;-33
2022/01/12 04:53:26;;;;;;;13.00;10.60;;;;;;102459.02;;;;106589;1297;62608;-30
2022/01/12 04:56:00;;;;;;;13.50;10.10;;;;;;102460.17;;;;106484;1297;66582;-30
2022/01/12 04:58:27;;;;;;;15.30;11.00;;;;;;102456.09;;;;106562;1296;62787;-39
2022/01/12 05:01:03;;;;;;;13.70;10.40;;;;;;102453.59;;;;106583;1297;62582;-38
2022/01/12 05:09:03;;;;;;;14.20;10.50;;;;;;102452.23;;;;106586;1296;67796;-43
2022/01/12 05:14:40;;;;;;;15.70;11.40;;;;;;102465.39;;;;106359;1303;62626;-42
2022/01/12 05:17:08;;;;;;;15.20;11.00;;;;;;102461.28;;;;106400;1299;62591;-30
2022/01/12 05:19:38;;;;;;;13.90;10.80;;;;;;102462.48;;;;106485;1297;62517;-31
2022/01/12 05:22:05;;;;;;;14.70;11.00;;;;;;102457.61;;;;106594;1296;65141;-43
2022/01/12 05:24:35;;;;;;;15.90;11.20;;;;;;102455.21;;;;106565;1297;62531;-42
2022/01/12 05:27:03;;;;;;;14.10;9.90;;;;;;102460.74;;;;106570;1297;62602;-35
2022/01/12 05:29:30;;;;;;;14.80;11.20;;;;;;102463.17;;;;106554;1297;62685;-30
2022/01/12 05:31:57;;;;;;;14.30;10.70;;;;;;102460.18;;;;106572;1297;62532;-44
2022/01/12 05:34:26;;;;;;;15.20;11.30;;;;;;102458.67;;;;106589;1296;66141;-43
2022/01/12 05:36:53;;;;;;;14.90;11.20;;;;;;102457.02;;;;106593;1296;62648;-42
2022/01/12 05:39:20;;;;;;;14.90;11.50;;;;;;102456.27;;;;106585;1296;62534;-42
2022/01/12 05:41:51;;;;;;;14.10;10.90;;;;;;102448.17;;;;106564;1296;62547;-43
2022/01/12 05:44:18;;;;;;;14.90;11.50;;;;;;102448.55;;;;106592;1297;62591;-42
2022/01/12 05:46:48;;;;;;;14.40;10.90;;;;;;102447.41;;;;106603;1296;65274;-43
2022/01/12 05:49:34;;;;;;;15.90;11.20;;;;;;102444.58;;;;106585;1297;62514;-42
2022/01/12 05:52:03;;;;;;;16.60;11.90;;;;;;102438.25;;;;106581;1297;62501;-42
2022/01/12 05:54:31;;;;;;;13.10;10.80;;;;;;102444.10;;;;106544;1297;62668;-42
2022/01/12 05:56:58;;;;;;;14.00;10.80;;;;;;102450.70;;;;106569;1296;62562;-42
2022/01/12 05:59:26;;;;;;;16.60;11.90;;;;;;102450.16;;;;106597;1296;65901;-42
2022/01/12 06:01:53;;;;;;;15.50;11.80;;;;;;102453.05;;;;106473;1298;62643;-43
2022/01/12 06:04:20;;;;;;;15.00;11.20;;;;;;102453.90;;;;106567;1297;62543;-43
2022/01/12 06:06:47;;;;;;;16.30;11.10;;;;;;102452.90;;;;106558;1296;62583;-31
2022/01/12 06:09:14;;;;;;;16.10;11.50;;;;;;102452.98;;;;106539;1298;62504;-30
2022/01/12 06:11:41;;;;;;;16.70;11.80;;;;;;102452.71;;;;106577;1297;66495;-30
2022/01/12 06:14:10;;;;;;;18.40;12.40;;;;;;102456.27;;;;106497;1299;62670;-30
2022/01/12 06:16:37;;;;;;;15.20;10.80;;;;;;102463.63;;;;106551;1296;62605;-34
2022/01/12 06:19:04;;;;;;;16.50;11.70;;;;;;102464.02;;;;106556;1296;62575;-30
2022/01/12 06:21:31;;;;;;;18.00;12.30;;;;;;102461.02;;;;106523;1299;62647;-42
2022/01/12 06:23:58;;;;;;;16.50;11.20;;;;;;102456.95;;;;106594;1296;65396;-42
2022/01/12 06:26:26;;;;;;;17.00;12.00;;;;;;102460.93;;;;106452;1299;62668;-31
2022/01/12 06:31:33;;;;;;;16.60;12.40;;;;;;102468.00;;;;106572;1297;62501;-42
2022/01/12 06:34:01;;;;;;;16.80;11.70;;;;;;102471.79;;;;106597;1296;62522;-43
2022/01/12 06:36:28;;;;;;;17.40;12.60;;;;;;102475.95;;;;106595;1297;66569;-30
2022/01/12 06:38:55;;;;;;;19.50;12.10;;;;;;102471.70;;;;106570;1297;62707;-30
2022/01/12 06:41:22;;;;;;;16.20;12.00;;;;;;102467.18;;;;106485;1297;62568;-42
2022/01/12 06:43:51;;;;;;;16.10;12.00;;;;;;102473.76;;;;106409;1297;62758;-42
2022/01/12 06:46:24;;;;;;;17.70;12.40;;;;;;102473.41;;;;106469;1296;62698;-42
2022/01/12 06:48:52;;;;;;;16.70;12.20;;;;;;102472.66;;;;106566;1296;67393;-43
2022/01/12 06:51:19;;;;;;;16.50;12.40;;;;;;102474.60;;;;106573;1296;62682;-43
2022/01/12 06:53:46;;;;;;;15.60;11.40;;;;;;102477.85;;;;106564;1297;62513;-42
2022/01/12 06:56:15;;;;;;;18.40;12.70;;;;;;102482.73;;;;106499;1299;62479;-43
2022/01/12 06:58:46;;;;;;;17.60;13.00;;;;;;102487.59;;;;106593;1297;62542;-43
2022/01/12 07:01:13;;;;;;;17.60;12.90;;;;;;102487.13;;;;106622;1297;65789;-30
2022/01/12 07:03:44;;;;;;;18.80;12.90;;;;;;102486.77;;;;106577;1297;62619;-31
2022/01/12 07:06:12;;;;;;;17.70;12.10;;;;;;102488.73;;;;106556;1297;62537;-31
2022/01/12 07:08:39;;;;;;;18.90;12.90;;;;;;102490.13;;;;106555;1296;62695;-30
2022/01/12 07:11:06;;;;;;;19.30;13.70;;;;;;102489.80;;;;106592;1296;62607;-31
2022/01/12 07:13:34;;;;;;;17.30;12.70;;;;;;102482.74;;;;106583;1296;65472;-30
2022/01/12 07:16:01;;;;;;;19.90;13.40;;;;;;102482.77;;;;106576;1296;62682;-30
2022/01/12 07:18:29;;;;;;;17.10;12.80;;;;;;102487.95;;;;106576;1296;62683;-31
2022/01/12 07:20:58;;;;;;;17.60;12.90;;;;;;102492.92;;;;106580;1296;62698;-37
2022/01/12 07:23:26;;;;;;;18.00;13.20;;;;;;102495.15;;;;106475;1297;62547;-31
2022/01/12 07:25:54;;;;;;;16.80;12.80;;;;;;102496.10;;;;106570;1295;65977;-30
2022/01/12 07:28:22;;;;;;;16.90;12.50;;;;;;102496.25;;;;106554;1296;62699;-43
2022/01/12 07:30:49;;;;;;;17.80;12.80;;;;;;102500.39;;;;106599;1296;62593;-43
2022/01/12 07:33:17;;;;;;;18.00;12.80;;;;;;102508.20;;;;106575;1296;62511;-43
2022/01/12 07:35:44;;;;;;;17.40;13.20;;;;;;102504.84;;;;106587;1297;62588;-43
2022/01/12 07:38:12;;;;;;;15.80;12.20;;;;;;102504.56;;;;106570;1296;66034;-31
2022/01/12 07:40:42;;;;;;;17.10;12.00;;;;;;102503.87;;;;106537;1295;63031;-30
2022/01/12 07:43:12;;;;;;;17.00;12.70;;;;;;102497.23;;;;106455;1296;62643;-30
2022/01/12 07:45:39;;;;;;;16.30;12.70;;;;;;102491.55;;;;106540;1296;62991;-30
2022/01/12 07:48:07;;;;;;;17.40;12.70;;;;;;102494.52;;;;106595;1296;62513;-30
2022/01/12 07:50:34;;;;;;;17.60;12.20;;;;;;102498.02;;;;106500;1298;64735;-30
2022/01/12 07:53:01;;;;;;;18.20;11.80;;;;;;102501.66;;;;106549;1297;62623;-31
2022/01/12 07:55:28;;;;;;;17.80;13.50;;;;;;102495.11;;;;106558;1297;62668;-30
2022/01/12 07:57:56;;;;;;;18.00;12.60;;;;;;102492.11;;;;106480;1298;62544;-42
2022/01/12 08:00:23;;;;;;;16.60;11.90;;;;;;102487.90;;;;106598;1296;62600;-43
2022/01/12 08:02:51;;;;;;;15.80;12.20;;;;;;102491.11;;;;106513;1297;66521;-31
2022/01/12 08:05:21;;;;;;;16.30;12.30;;;;;;102494.82;;;;106586;1297;63060;-31
2022/01/12 08:07:49;;;;;;;16.40;12.30;;;;;;102498.41;;;;106461;1297;63099;-42
2022/01/12 08:10:16;;;;;;;16.60;11.30;;;;;;102486.59;;;;106580;1297;62601;-43
2022/01/12 08:12:44;;;;;;;16.00;11.50;;;;;;102490.25;;;;106490;1297;62541;-31
2022/01/12 08:15:15;;;;;;;15.90;11.80;;;;;;102494.45;;;;106519;1299;64643;-30
2022/01/12 08:17:42;;;;;;;15.30;11.10;;;;;;102486.85;;;;106580;1297;62648;-43
2022/01/12 08:20:12;;;;;;;15.20;11.20;;;;;;102489.56;;;;106567;1296;62542;-43
2022/01/12 08:22:39;;;;;;;16.20;11.10;;;;;;102483.86;;;;106575;1297;62883;-32
2022/01/12 08:25:10;;;;;;;15.00;11.40;;;;;;102486.27;;;;106570;1297;62527;-30
2022/01/12 08:27:40;;;;;;;14.40;11.00;;;;;;102486.48;;;;106578;1297;66197;-30
2022/01/12 08:30:16;;;;;;;14.70;11.10;;;;;;102482.33;;;;106587;1296;62549;-31
2022/01/12 08:32:50;;;;;;;15.10;10.60;;;;;;102474.48;;;;106595;1296;62434;-43
2022/01/12 08:35:18;;;;;;;15.00;11.00;;;;;;102473.23;;;;106571;1297;62630;-42
2022/01/12 08:37:48;;;;;;;15.50;10.70;;;;;;102475.76;;;;106481;1297;62579;-30
2022/01/12 08:40:17;;;;;;;14.40;10.40;;;;;;102474.02;;;;106602;1297;66505;-30
2022/01/12 08:42:46;;;;;;;13.90;10.50;;;;;;102468.92;;;;106470;1297;62699;-43
2022/01/12 08:45:17;;;;;;;14.80;10.50;;;;;;102472.84;;;;106572;1297;62553;-43
2022/01/12 08:47:48;;;;;;;14.10;10.30;;;;;;102478.34;;;;106567;1297;62668;-43
2022/01/12 08:50:19;;;;;;;12.70;10.10;;;;;;102481.33;;;;106602;1297;62492;-43
2022/01/12 08:52:47;;;;;;;13.90;9.70;;;;;;102485.36;;;;106613;1297;64912;-43
2022/01/12 08:55:20;;;;;;;14.00;10.00;;;;;;102482.13;;;;106570;1297;62592;-43
2022/01/12 08:57:51;;;;;;;14.10;9.50;;;;;;102480.02;;;;106477;1297;62501;-30
2022/01/12 09:00:19;;;;;;;14.30;9.70;;;;;;102477.94;;;;106547;1296;62582;-30
2022/01/12 09:02:46;;;;;;;13.40;9.50;;;;;;102481.61;;;;106279;1297;279279;-36
2022/01/12 09:05:14;;;;;;;13.90;9.60;;;;;;102480.74;;;;106575;1296;66194;-31
2022/01/12 09:07:45;;;;;;;13.30;9.10;;;;;;102474.94;;;;106435;1297;62668;-32
2022/01/12 09:10:12;;;;;;;12.20;9.20;;;;;;102466.95;;;;106582;1296;62656;-35
2022/01/12 09:12:42;;;;;;;12.20;8.80;;;;;;102465.48;;;;106431;1296;62714;-32
2022/01/12 09:15:14;;;;;;;11.80;9.10;;;;;;102464.89;;;;106484;1298;62542;-30
2022/01/12 09:17:43;;;;;;;12.30;8.70;;;;;;102460.92;;;;106578;1296;64760;-43
2022/01/12 09:20:11;;;;;;;12.20;8.60;;;;;;102454.98;;;;106484;1298;62714;-43
2022/01/12 09:22:38;;;;;;;12.30;8.10;;;;;;102460.28;;;;106596;1297;62626;-39
2022/01/12 09:25:07;;;;;;;13.20;8.60;;;;;;102458.85;;;;106549;1296;62680;-36
2022/01/12 09:27:34;;;;;;;12.70;9.10;;;;;;102456.09;;;;106592;1297;62567;-30
2022/01/12 09:30:01;;;;;;;12.40;8.50;;;;;;102459.04;;;;106559;1297;66420;-33
2022/01/12 09:32:28;;;;;;;11.50;7.80;;;;;;102449.89;;;;106571;1296;62702;-43
2022/01/12 09:34:55;;;;;;;11.10;8.10;;;;;;102446.60;;;;106473;1298;63139;-43
2022/01/12 09:37:23;;;;;;;10.20;7.40;;;;;;102444.58;;;;106555;1297;62941;-43
2022/01/12 09:39:50;;;;;;;11.80;8.40;;;;;;102436.15;;;;106495;1297;62553;-42
2022/01/12 09:42:17;;;;;;;11.30;8.40;;;;;;102435.48;;;;106575;1296;64896;-43
2022/01/12 09:44:46;;;;;;;11.40;7.80;;;;;;102436.04;;;;106572;1297;62746;-43
2022/01/12 09:47:18;;;;;;;11.70;7.70;;;;;;102437.41;;;;106467;1297;62645;-43
2022/01/12 09:49:46;;;;;;;11.50;7.80;;;;;;102435.44;;;;106554;1296;62556;-43
2022/01/12 09:52:14;;;;;;;11.90;7.70;;;;;;102450.80;;;;106458;1299;62517;-30
2022/01/12 09:54:46;;;;;;;11.10;7.30;;;;;;102452.34;;;;106591;1296;64703;-30
2022/01/12 09:57:14;;;;;;;10.10;7.10;;;;;;102450.76;;;;106402;1298;62574;-30
2022/01/12 09:59:44;;;;;;;11.00;7.50;;;;;;102447.52;;;;106548;1297;62567;-30
2022/01/12 10:02:19;;;;;;;10.60;7.70;;;;;;102450.01;;;;106560;1296;62535;-43
2022/01/12 10:05:08;;;;;;;10.60;7.00;;;;;;102444.15;;;;106588;1297;62956;-43
2022/01/12 10:07:36;;;;;;;10.10;7.30;;;;;;102441.00;;;;106582;1297;67662;-30
2022/01/12 10:10:11;;;;;;;10.90;6.90;;;;;;102434.66;;;;106569;1297;62750;-30
2022/01/12 10:12:55;;;;;;;11.60;7.50;;;;;;102433.70;;;;106458;1297;62620;-43
2022/01/12 10:15:28;;;;;;;;;;;;;;102433.71;;;;106600;1297;62608;-43
2022/01/12 10:18:04;;;;;;;11.00;7.10;;;;;;102427.84;;;;106574;1296;62538;-43
2022/01/12 10:20:32;;;;;;;9.90;6.70;;;;;;102421.92;;;;106580;1297;66164;-43
2022/01/12 10:23:06;;;;;;;11.00;6.90;;;;;;102414.90;;;;106435;1299;62599;-43
2022/01/12 10:25:34;;;;;;;10.00;7.10;;;;;;102414.67;;;;106580;1297;62462;-44
2022/01/12 10:28:13;;;;;;;9.40;6.90;;;;;;102412.39;;;;106372;1299;62615;-30
2022/01/12 10:30:58;;;;;;;10.10;7.10;;;;;;102417.62;;;;106562;1294;62579;-30
2022/01/12 10:33:33;;;;;;;10.00;6.40;;;;;;102419.89;;;;106486;1297;67508;-30
2022/01/12 10:36:06;;;;;;;9.90;7.00;;;;;;102422.48;;;;106499;1297;62715;-34
2022/01/12 10:38:33;;;;;;;10.50;7.20;;;;;;102416.60;;;;106437;1297;62676;-32
2022/01/12 10:41:04;;;;;;;11.30;7.20;;;;;;102417.05;;;;106560;1297;64270;-33
2022/01/12 10:43:34;;;;;;;10.40;7.30;;;;;;102412.35;;;;106496;1299;62584;-41
2022/01/12 10:46:04;;;;;;;12.80;8.00;;;;;;102416.96;;;;106449;1299;66009;-55
2022/01/12 10:48:39;;;;;;;10.60;6.80;;;;;;102418.10;;;;106458;1299;62680;-40
2022/01/12 10:51:07;;;;;;;10.40;7.20;;;;;;102423.99;;;;106560;1297;62570;-52
2022/01/12 10:53:36;;;;;;;12.30;7.50;;;;;;102423.11;;;;106557;1296;62629;-47
2022/01/12 10:56:09;;;;;;;9.80;6.90;;;;;;102427.56;;;;106473;1300;62543;-36
2022/01/12 10:58:42;;;;;;;10.90;7.70;;;;;;102424.44;;;;106567;1297;67565;-36
2022/01/12 11:01:11;;;;;;;11.60;7.40;;;;;;102420.43;;;;106427;1298;62535;-32
2022/01/12 11:03:39;;;;;;;12.30;7.40;;;;;;102419.75;;;;106554;1297;62959;-37
2022/01/12 11:06:08;;;;;;;14.10;9.40;;;;;;102419.67;;;;106553;1297;62700;-40
2022/01/12 11:08:37;;;;;;;12.90;8.50;;;;;;102425.77;;;;106521;1297;62689;-36
2022/01/12 11:11:06;;;;;;;14.70;9.50;;;;;;102436.62;;;;106572;1297;66501;-50
2022/01/12 11:13:35;;;;;;;13.60;10.10;;;;;;102436.36;;;;106454;1300;62706;-44
2022/01/12 11:16:04;;;;;;;13.20;9.70;;;;;;102434.75;;;;106470;1299;62605;-32
2022/01/12 11:18:34;;;;;;;13.70;9.80;;;;;;102422.70;;;;106559;1297;62606;-31
2022/01/12 11:21:24;;;;;;;14.70;10.60;;;;;;102419.66;;;;106590;1297;62487;-31
2022/01/12 11:23:56;;;;;;;16.00;11.20;;;;;;102421.02;;;;106425;1299;66111;-31
2022/01/12 11:26:30;;;;;;;13.60;9.70;;;;;;102407.16;;;;106357;1299;62629;-32
2022/01/12 11:28:58;;;;;;;14.40;10.20;;;;;;102406.78;;;;106464;1300;62627;-33
2022/01/12 11:31:34;;;;;;;15.10;10.50;;;;;;102412.00;;;;106559;1297;62738;-34
2022/01/12 11:34:01;;;;;;;17.50;11.80;;;;;;102408.55;;;;106605;1296;62629;-42
2022/01/12 11:36:39;;;;;;;15.80;10.70;;;;;;102414.11;;;;106454;1297;65985;-31
2022/01/12 11:39:10;;;;;;;14.70;10.70;;;;;;102420.84;;;;106585;1297;62553;-38
2022/01/12 11:41:40;;;;;;;15.10;10.50;;;;;;102409.99;;;;106577;1297;62569;-45
2022/01/12 11:44:22;;;;;;;16.80;11.30;;;;;;102408.58;;;;106550;1297;62610;-43
2022/01/12 11:46:52;;;;;;;17.40;10.90;;;;;;102412.31;;;;106467;1297;62726;-42
2022/01/12 11:49:33;;;;;;;16.80;11.60;;;;;;102409.27;;;;106574;1297;65792;-43
2022/01/12 11:52:13;;;;;;;14.20;10.70;;;;;;102404.92;;;;106574;1297;62571;-43
2022/01/12 11:54:44;;;;;;;18.10;13.00;;;;;;102400.16;;;;106371;1299;62495;-38
2022/01/12 11:57:13;;;;;;;17.70;12.10;;;;;;102403.69;;;;106453;1297;62669;-32
2022/01/12 12:00:00;;;;;;;17.80;12.40;;;;;;102407.21;;;;106593;1297;62620;-41
2022/01/12 12:02:38;;;;;;;15.50;9.90;;;;;;102396.45;;;;106428;1297;66239;-44
2022/01/12 12:05:28;;;;;;;17.10;12.20;;;;;;102386.17;;;;106555;1297;62594;-41
2022/01/12 12:08:04;;;;;;;16.70;11.50;;;;;;102388.64;;;;106447;1297;62671;-46
2022/01/12 12:10:40;;;;;;;16.00;11.80;;;;;;102387.86;;;;106553;1297;62589;-48
2022/01/12 12:13:11;;;;;;;15.10;9.90;;;;;;102386.94;;;;106545;1295;62741;-33
2022/01/12 12:15:38;;;;;;;14.00;8.90;;;;;;102373.83;;;;106457;1299;65783;-31
2022/01/12 12:18:06;;;;;;;13.20;9.20;;;;;;102375.48;;;;106611;1296;62714;-42
2022/01/12 12:20:34;;;;;;;12.70;9.00;;;;;;102367.93;;;;106450;1297;62637;-31
2022/01/12 12:23:01;;;;;;;14.70;9.30;;;;;;102365.36;;;;106553;1297;62549;-31
2022/01/12 12:25:32;;;;;;;13.70;9.50;;;;;;102360.52;;;;106612;1297;62560;-31
2022/01/12 12:28:02;;;;;;;14.40;9.50;;;;;;102363.84;;;;106459;1300;65996;-33
2022/01/12 12:30:32;;;;;;;13.30;9.00;;;;;;102360.45;;;;106650;1297;62566;-33
2022/01/12 12:33:19;;;;;;;13.10;9.50;;;;;;102359.30;;;;106635;1297;62580;-38
2022/01/12 12:35:46;;;;;;;12.70;9.10;;;;;;102351.33;;;;106639;1297;62633;-42
2022/01/12 12:38:16;;;;;;;12.40;9.00;;;;;;102351.60;;;;106662;1297;62540;-45
2022/01/12 12:40:47;;;;;;;11.40;8.10;;;;;;102350.18;;;;106648;1297;64738;-37
2022/01/12 12:43:25;;;;;;;12.90;8.80;;;;;;102349.02;;;;106568;1297;62665;-32
2022/01/12 12:46:05;;;;;;;12.30;8.80;;;;;;102353.10;;;;106576;1297;62719;-32
2022/01/12 12:48:36;;;;;;;12.10;8.60;;;;;;102355.82;;;;106549;1297;63055;-34
2022/01/12 12:51:08;;;;;;;13.40;9.20;;;;;;102356.44;;;;106543;1297;62656;-37
2022/01/12 12:53:40;;;;;;;13.10;9.10;;;;;;102352.21;;;;106573;1297;66032;-35
2022/01/12 12:56:12;;;;;;;11.60;9.00;;;;;;102352.23;;;;106456;1297;62737;-44
2022/01/12 12:58:43;;;;;;;11.50;8.30;;;;;;102350.32;;;;106450;1299;62633;-43
2022/01/12 13:01:14;;;;;;;12.90;8.70;;;;;;102356.63;;;;106565;1297;62765;-31
2022/01/12 13:03:57;;;;;;;11.70;8.70;;;;;;102354.56;;;;106577;1297;62595;-31
2022/01/12 13:06:28;;;;;;;11.60;8.60;;;;;;102341.33;;;;106573;1297;67757;-39
2022/01/12 13:09:01;;;;;;;11.60;8.50;;;;;;102335.67;;;;106563;1297;62672;-39
2022/01/12 13:11:31;;;;;;;11.00;8.00;;;;;;102328.59;;;;106568;1297;62514;-38
2022/01/12 13:14:07;;;;;;;11.10;7.70;;;;;;102328.85;;;;106562;1297;62617;-39
2022/01/12 13:16:35;;;;;;;11.90;8.60;;;;;;102331.73;;;;106584;1297;62667;-38
2022/01/12 13:19:08;;;;;;;11.90;8.10;;;;;;102331.58;;;;106460;1297;64511;-43
2022/01/12 13:21:41;;;;;;;11.10;8.40;;;;;;102331.89;;;;106627;1297;62674;-41
2022/01/12 13:24:09;;;;;;;12.80;8.70;;;;;;102333.54;;;;106626;1297;62533;-40
2022/01/12 13:26:36;;;;;;;12.30;8.40;;;;;;102336.23;;;;106622;1296;62514;-41
2022/01/12 13:29:07;;;;;;;11.40;8.40;;;;;;102329.11;;;;106557;1297;62561;-46
2022/01/12 13:31:34;;;;;;;12.10;8.80;;;;;;102319.09;;;;106460;1297;66530;-43
2022/01/12 13:34:13;;;;;;;12.40;8.60;;;;;;102317.42;;;;106443;1296;62670;-40
2022/01/12 13:36:51;;;;;;;14.30;9.10;;;;;;102314.05;;;;106437;1299;62618;-56
2022/01/12 13:39:19;;;;;;;11.80;8.50;;;;;;102314.38;;;;106464;1300;62506;-48
2022/01/12 13:41:47;;;;;;;11.30;8.50;;;;;;102308.49;;;;106535;1296;63074;-50
2022/01/12 13:44:18;;;;;;;12.90;8.90;;;;;;102296.13;;;;106458;1297;66420;-39
2022/01/12 13:50:08;;;;;;;;;;;;;;102304.63;;;;106090;1303;62793;-47
2022/01/12 13:52:37;;;;;;;12.50;9.40;;;;;;102300.36;;;;106415;1297;62677;-34
2022/01/12 13:55:13;;;;;;;10.40;8.40;;;;;;102295.13;;;;106573;1296;62561;-35
2022/01/12 13:57:43;;;;;;;12.40;9.00;;;;;;102293.20;;;;106468;1297;67713;-48
2022/01/12 14:00:19;;;;;;;11.80;9.10;;;;;;102286.07;;;;106483;1297;62589;-49
2022/01/12 14:02:46;;;;;;;13.80;9.10;;;;;;102284.23;;;;106503;1298;62687;-38
2022/01/12 14:05:20;;;;;;;13.60;8.90;;;;;;102277.81;;;;106561;1296;62677;-34
2022/01/12 14:07:59;;;;;;;12.50;9.20;;;;;;102275.70;;;;106483;1297;62625;-47
2022/01/12 14:10:30;;;;;;;13.20;9.40;;;;;;102282.61;;;;106455;1297;65965;-47
2022/01/12 14:12:58;;;;;;;13.30;8.50;;;;;;102286.95;;;;106424;1299;62652;-34
2022/01/12 14:15:30;;;;;;;12.60;9.60;;;;;;102286.73;;;;106533;1297;62582;-35
2022/01/12 14:17:59;;;;;;;12.60;9.50;;;;;;102287.91;;;;106484;1297;62733;-48
2022/01/12 14:20:38;;;;;;;13.20;8.90;;;;;;102291.91;;;;106576;1297;62666;-47
2022/01/12 14:23:09;;;;;;;12.60;9.30;;;;;;102290.23;;;;106474;1297;66901;-48
2022/01/12 14:25:49;;;;;;;13.10;9.70;;;;;;102287.45;;;;106574;1296;62579;-48
2022/01/12 14:28:17;;;;;;;13.40;9.50;;;;;;102286.86;;;;106425;1299;62615;-46
2022/01/12 14:30:46;;;;;;;19.30;11.80;;;;;;102293.23;;;;106423;1299;62692;-46
2022/01/12 14:33:13;;;;;;;20.00;11.70;;;;;;102290.17;;;;106486;1300;62606;-36
2022/01/12 14:35:41;;;;;;;16.90;11.80;;;;;;102288.59;;;;106445;1299;64692;-36
2022/01/12 14:38:08;;;;;;;17.90;12.00;;;;;;102297.06;;;;106553;1296;62623;-35
2022/01/12 14:40:36;;;;;;;18.50;12.80;;;;;;102291.15;;;;106532;1297;62687;-37
2022/01/12 14:43:07;;;;;;;18.90;12.40;;;;;;102292.37;;;;106438;1298;62623;-48